createdAt,value
2023-03-26T00:02:24.874Z,1.02
2023-03-26T00:04:57.073Z,1.50
2023-03-26T00:07:29.388Z,1.33
2023-03-26T00:10:02.442Z,1.30
2023-03-26T00:12:34.724Z,1.42
2023-03-26T00:15:10.687Z,1.55
2023-03-26T00:17:43.101Z,1.17
2023-03-26T00:20:15.492Z,1.08
2023-03-26T00:22:48.259Z,1.60
2023-03-26T00:25:21.262Z,1.20
2023-03-26T00:27:54.190Z,1.55
2023-03-26T00:30:26.982Z,1.23
2023-03-26T00:32:59.499Z,1.10
2023-03-26T00:35:32.087Z,1.08
2023-03-26T00:38:04.717Z,1.65
2023-03-26T00:40:37.076Z,1.27
2023-03-26T00:43:18.993Z,1.60
2023-03-26T00:45:54.623Z,1.80
2023-03-26T00:48:42.169Z,1.83
2023-03-26T00:51:18.605Z,1.20
2023-03-26T00:53:51.462Z,1.67
2023-03-26T00:56:23.963Z,1.70
2023-03-26T00:58:58.220Z,1.58
2023-03-26T01:01:31.777Z,1.02
2023-03-26T01:04:24.600Z,1.50
2023-03-26T01:07:29.466Z,1.30
2023-03-26T01:12:33.932Z,1.60
2023-03-26T01:15:08.474Z,1.20
2023-03-26T01:17:43.316Z,1.75
2023-03-26T01:20:26.909Z,1.30
2023-03-26T01:23:06.536Z,1.52
2023-03-26T01:25:43.518Z,1.80
2023-03-26T01:28:17.843Z,2.05
2023-03-26T01:31:02.862Z,1.90
2023-03-26T01:33:44.097Z,1.75
2023-03-26T01:36:21.800Z,1.70
2023-03-26T01:39:05.308Z,2.10
2023-03-26T01:42:09.961Z,1.73
2023-03-26T01:44:52.451Z,1.58
2023-03-26T01:47:25.219Z,1.95
2023-03-26T01:49:57.368Z,1.73
2023-03-26T01:52:29.881Z,2.03
2023-03-26T01:55:03.007Z,1.80
2023-03-26T01:57:43.794Z,2.10
2023-03-26T02:00:19.136Z,1.95
2023-03-26T02:02:59.618Z,1.85
2023-03-26T02:05:42.179Z,1.50
2023-03-26T02:08:24.081Z,2.35
2023-03-26T02:10:59.829Z,1.88
2023-03-26T02:13:32.775Z,2.08
2023-03-26T02:16:08.071Z,2.20
2023-03-26T02:18:41.260Z,1.80
2023-03-26T02:21:20.524Z,2.00
2023-03-26T02:24:03.517Z,1.33
2023-03-26T02:26:38.456Z,1.35
2023-03-26T02:29:19.544Z,2.03
2023-03-26T02:31:53.214Z,1.50
2023-03-26T02:34:25.457Z,1.95
2023-03-26T02:37:00.113Z,1.90
2023-03-26T02:42:11.511Z,2.10
2023-03-26T02:44:51.280Z,1.45
2023-03-26T02:47:23.729Z,2.92
2023-03-26T02:49:58.553Z,1.73
2023-03-26T02:52:41.317Z,1.70
2023-03-26T02:55:14.049Z,1.40
2023-03-26T02:57:47.364Z,1.67
2023-03-26T03:00:26.071Z,2.63
2023-03-26T03:03:26.005Z,1.85
2023-03-26T03:06:01.611Z,1.90
2023-03-26T03:08:43.181Z,1.67
2023-03-26T03:11:22.453Z,1.70
2023-03-26T03:13:56.419Z,1.60
2023-03-26T03:16:32.317Z,2.00
2023-03-26T03:19:17.190Z,1.90
2023-03-26T03:21:49.544Z,2.30
2023-03-26T03:24:21.715Z,1.70
2023-03-26T03:26:58.171Z,2.00
2023-03-26T03:29:41.590Z,2.05
2023-03-26T03:32:32.450Z,1.92
2023-03-26T03:35:08.739Z,1.65
2023-03-26T03:37:41.122Z,2.10
2023-03-26T03:40:14.383Z,2.40
2023-03-26T03:42:47.382Z,1.60
2023-03-26T03:45:26.654Z,1.70
2023-03-26T03:48:12.826Z,1.98
2023-03-26T03:50:48.837Z,1.90
2023-03-26T03:53:30.705Z,1.70
2023-03-26T03:56:10.613Z,2.08
2023-03-26T03:59:06.176Z,1.95
2023-03-26T04:01:43.400Z,1.77
2023-03-26T04:04:24.910Z,2.00
2023-03-26T04:07:06.386Z,2.25
2023-03-26T04:09:56.375Z,1.85
2023-03-26T04:12:31.724Z,1.75
2023-03-26T04:15:07.281Z,1.83
2023-03-26T04:17:43.214Z,1.88
2023-03-26T04:20:19.570Z,2.38
2023-03-26T04:22:54.045Z,3.05
2023-03-26T04:25:33.528Z,2.22
2023-03-26T04:28:29.038Z,2.53
2023-03-26T04:31:17.055Z,2.47
2023-03-26T04:33:54.595Z,2.70
2023-03-26T04:36:30.223Z,2.72
2023-03-26T04:39:05.496Z,2.75
2023-03-26T04:41:58.087Z,3.10
2023-03-26T04:44:37.538Z,2.15
2023-03-26T04:47:15.319Z,2.35
2023-03-26T04:49:51.195Z,2.63
2023-03-26T04:52:24.278Z,2.30
2023-03-26T04:55:03.241Z,1.70
2023-03-26T04:57:43.889Z,2.38
2023-03-26T05:00:25.660Z,2.10
2023-03-26T05:03:02.335Z,2.45
2023-03-26T05:05:34.561Z,2.33
2023-03-26T05:08:10.331Z,2.17
2023-03-26T05:10:42.657Z,2.75
2023-03-26T05:13:24.320Z,2.08
2023-03-26T05:15:59.578Z,2.58
2023-03-26T05:18:42.335Z,2.63
2023-03-26T05:21:14.920Z,2.30
2023-03-26T05:23:47.466Z,2.50
2023-03-26T05:26:24.762Z,2.13
2023-03-26T05:28:57.116Z,1.93
2023-03-26T05:31:34.020Z,2.35
2023-03-26T05:34:07.440Z,2.00
2023-03-26T05:36:39.722Z,2.25
2023-03-26T05:39:26.452Z,2.42
2023-03-26T05:42:18.801Z,1.75
2023-03-26T05:45:08.844Z,2.00
2023-03-26T05:47:41.301Z,2.78
2023-03-26T05:50:13.690Z,2.33
2023-03-26T05:52:48.437Z,2.05
2023-03-26T05:55:59.077Z,2.25
2023-03-26T05:58:51.863Z,1.77
2023-03-26T06:01:45.023Z,1.87
2023-03-26T06:04:48.204Z,2.35
2023-03-26T06:07:49.999Z,2.40
2023-03-26T06:10:24.420Z,2.88
2023-03-26T06:12:56.609Z,2.47
2023-03-26T06:15:29.410Z,2.53
2023-03-26T06:18:06.828Z,2.47
2023-03-26T06:21:06.434Z,2.42
2023-03-26T06:23:49.282Z,2.10
2023-03-26T06:26:39.049Z,1.70
2023-03-26T06:29:25.574Z,1.80
2023-03-26T06:32:16.249Z,2.47
2023-03-26T06:34:53.601Z,2.10
2023-03-26T06:37:25.969Z,2.47
2023-03-26T06:40:07.503Z,2.50
2023-03-26T06:43:12.199Z,2.00
2023-03-26T06:46:16.606Z,2.40
2023-03-26T06:48:57.980Z,2.78
2023-03-26T06:51:37.919Z,2.55
2023-03-26T06:54:36.420Z,2.42
2023-03-26T06:57:28.950Z,2.20
2023-03-26T07:00:22.046Z,2.53
2023-03-26T07:03:12.880Z,2.88
2023-03-26T07:06:03.597Z,2.30
2023-03-26T07:09:02.902Z,2.55
2023-03-26T07:11:53.734Z,2.40
2023-03-26T07:14:52.052Z,2.53
2023-03-26T07:17:42.927Z,2.42
2023-03-26T07:20:22.188Z,1.90
2023-03-26T07:22:54.767Z,3.13
2023-03-26T07:25:45.185Z,2.75
2023-03-26T07:29:42.428Z,5.93
2023-03-26T07:32:30.700Z,2.40
2023-03-26T07:35:26.605Z,2.60
2023-03-26T07:38:38.530Z,2.47
2023-03-26T07:42:05.807Z,1.92
2023-03-26T07:45:12.646Z,2.30
2023-03-26T07:48:18.656Z,3.00
2023-03-26T07:51:10.656Z,3.03
2023-03-26T07:54:00.783Z,2.10
2023-03-26T07:57:09.182Z,2.87
2023-03-26T07:59:56.179Z,2.28
2023-03-26T08:03:24.345Z,2.65
2023-03-26T08:06:06.656Z,2.44
2023-03-26T08:09:23.029Z,2.45
2023-03-26T08:12:23.140Z,2.13
2023-03-26T08:15:03.238Z,3.00
2023-03-26T08:17:47.965Z,2.83
2023-03-26T08:20:36.521Z,2.72
2023-03-26T08:23:19.034Z,2.60
2023-03-26T08:25:59.762Z,2.55
2023-03-26T08:28:56.509Z,2.80
2023-03-26T08:31:35.639Z,2.90
2023-03-26T08:34:11.952Z,1.95
2023-03-26T08:36:44.360Z,2.90
2023-03-26T08:39:17.270Z,2.80
2023-03-26T08:41:52.340Z,2.50
2023-03-26T08:44:54.837Z,2.78
2023-03-26T08:47:59.430Z,2.50
2023-03-26T08:50:59.745Z,2.15
2023-03-26T08:54:11.087Z,2.60
2023-03-26T08:57:15.196Z,4.65
2023-03-26T09:00:11.433Z,5.13
2023-03-26T09:03:24.924Z,2.90
2023-03-26T09:06:15.961Z,1.90
2023-03-26T09:09:19.116Z,2.97
2023-03-26T09:12:14.907Z,2.40
2023-03-26T09:15:14.827Z,2.40
2023-03-26T09:18:29.620Z,2.00
2023-03-26T09:24:18.753Z,2.33
2023-03-26T09:27:15.008Z,2.45
2023-03-26T09:29:53.142Z,2.70
2023-03-26T09:32:37.181Z,2.70
2023-03-26T09:35:28.170Z,3.13
2023-03-26T09:38:15.752Z,2.70
2023-03-26T09:41:14.093Z,2.20
2023-03-26T09:44:18.269Z,1.95
2023-03-26T09:47:04.442Z,2.92
2023-03-26T09:49:58.285Z,2.70
2023-03-26T09:52:45.883Z,2.13
2023-03-26T09:55:42.352Z,2.47
2023-03-26T09:58:33.736Z,2.60
2023-03-26T10:01:32.517Z,3.13
2023-03-26T10:04:36.098Z,3.40
2023-03-26T10:07:09.002Z,3.73
2023-03-26T10:09:57.666Z,4.05
2023-03-26T10:13:14.799Z,4.15
2023-03-26T10:16:20.786Z,3.58
2023-03-26T10:18:58.767Z,3.20
2023-03-26T10:21:52.533Z,2.70
2023-03-26T10:25:02.981Z,2.97
2023-03-26T10:28:07.408Z,3.20
2023-03-26T10:33:39.669Z,2.70
2023-03-26T10:36:32.697Z,3.40
2023-03-26T10:39:38.202Z,3.20
2023-03-26T10:42:29.216Z,4.10
2023-03-26T10:45:20.997Z,4.18
2023-03-26T10:48:15.216Z,3.80
2023-03-26T10:51:20.892Z,3.60
2023-03-26T10:54:07.319Z,2.97
2023-03-26T10:56:45.965Z,2.20
2023-03-26T10:59:19.457Z,2.88
2023-03-26T11:02:04.613Z,2.47
2023-03-26T11:04:47.210Z,1.45
2023-03-26T11:07:34.552Z,2.38
2023-03-26T11:10:16.602Z,3.22
2023-03-26T11:13:20.672Z,4.50
2023-03-26T11:16:03.494Z,4.68
2023-03-26T11:18:59.172Z,4.47
2023-03-26T11:21:42.513Z,3.80
2023-03-26T11:24:42.828Z,2.67
2023-03-26T11:27:23.695Z,3.15
2023-03-26T11:30:29.222Z,2.85
2023-03-26T11:33:06.034Z,2.90
2023-03-26T11:35:42.509Z,4.35
2023-03-26T11:38:26.706Z,3.90
2023-03-26T11:41:01.541Z,3.10
2023-03-26T11:44:00.922Z,4.75
2023-03-26T11:46:46.267Z,3.50
2023-03-26T11:49:22.312Z,2.75
2023-03-26T11:51:55.266Z,2.35
2023-03-26T11:54:28.559Z,2.00
2023-03-26T11:57:13.491Z,1.70
2023-03-26T12:00:16.476Z,2.00
2023-03-26T12:02:49.668Z,1.90
2023-03-26T12:08:28.888Z,1.90
2023-03-26T12:11:11.058Z,2.20
2023-03-26T12:14:04.209Z,2.05
2023-03-26T12:16:36.879Z,3.75
2023-03-26T12:19:29.294Z,3.83
2023-03-26T12:22:01.799Z,4.97
2023-03-26T12:24:36.406Z,5.22
2023-03-26T12:27:33.467Z,4.00
2023-03-26T12:30:22.622Z,3.53
2023-03-26T12:33:06.125Z,3.17
2023-03-26T12:35:38.828Z,2.70
2023-03-26T12:38:34.420Z,2.40
2023-03-26T12:43:51.346Z,1.85
2023-03-26T12:44:59.112Z,1.67
2023-03-26T12:47:59.071Z,1.55
2023-03-26T12:50:35.818Z,1.95
2023-03-26T12:53:34.074Z,1.48
2023-03-26T12:56:22.470Z,1.77
2023-03-26T12:59:14.351Z,1.92
2023-03-26T13:02:09.714Z,1.90
2023-03-26T13:05:05.066Z,1.33
2023-03-26T13:07:52.867Z,1.88
2023-03-26T13:10:29.444Z,1.45
2023-03-26T13:13:25.807Z,1.60
2023-03-26T13:16:13.800Z,1.40
2023-03-26T13:18:59.816Z,1.70
2023-03-26T13:21:38.405Z,1.63
2023-03-26T13:24:25.117Z,1.60
2023-03-26T13:27:15.954Z,1.85
2023-03-26T13:30:17.781Z,1.65
2023-03-26T13:32:58.997Z,1.23
2023-03-26T13:35:41.703Z,1.58
2023-03-26T13:38:34.490Z,1.57
2023-03-26T13:41:24.767Z,2.22
2023-03-26T13:44:19.779Z,1.60
2023-03-26T13:47:24.195Z,1.33
2023-03-26T13:50:04.206Z,1.27
2023-03-26T13:53:14.102Z,1.50
2023-03-26T13:55:53.731Z,1.30
2023-03-26T13:59:03.835Z,1.40
2023-03-26T14:01:50.570Z,2.03
2023-03-26T14:04:44.297Z,1.50
2023-03-26T14:07:26.564Z,1.52
2023-03-26T14:10:08.018Z,1.48
2023-03-26T14:13:10.662Z,1.77
2023-03-26T14:16:05.580Z,1.30
2023-03-26T14:18:59.602Z,1.17
2023-03-26T14:21:39.529Z,1.08
2023-03-26T14:24:39.176Z,1.85
2023-03-26T14:27:34.334Z,1.40
2023-03-26T14:30:31.239Z,1.63
2023-03-26T14:33:27.560Z,1.80
2023-03-26T14:36:18.924Z,1.90
2023-03-26T14:39:27.765Z,1.45
2023-03-26T14:42:08.208Z,1.38
2023-03-26T14:44:56.737Z,2.30
2023-03-26T14:47:30.656Z,1.67
2023-03-26T14:50:15.962Z,1.83
2023-03-26T14:53:01.466Z,1.40
2023-03-26T14:56:01.614Z,1.60
2023-03-26T14:58:53.107Z,2.05
2023-03-26T15:01:29.793Z,1.33
2023-03-26T15:04:26.913Z,1.30
2023-03-26T15:07:32.557Z,1.50
2023-03-26T15:10:17.828Z,1.92
2023-03-26T15:13:18.057Z,1.95
2023-03-26T15:16:09.512Z,1.50
2023-03-26T15:18:41.703Z,1.40
2023-03-26T15:21:32.289Z,1.52
2023-03-26T15:24:45.202Z,1.60
2023-03-26T15:27:47.516Z,1.58
2023-03-26T15:30:43.175Z,1.30
2023-03-26T15:33:40.111Z,1.10
2023-03-26T15:36:34.638Z,1.70
2023-03-26T15:39:59.077Z,2.03
2023-03-26T15:42:56.844Z,2.30
2023-03-26T15:45:35.683Z,2.50
2023-03-26T15:48:13.811Z,2.17
2023-03-26T15:50:55.026Z,2.90
2023-03-26T15:53:36.892Z,3.83
2023-03-26T15:56:27.787Z,2.03
2023-03-26T15:59:25.153Z,2.00
2023-03-26T16:02:16.358Z,1.30
2023-03-26T16:05:14.858Z,1.00
2023-03-26T16:07:58.925Z,1.00
2023-03-26T16:10:51.505Z,0.77
2023-03-26T16:13:26.759Z,0.65
2023-03-26T16:16:04.894Z,1.02
2023-03-26T16:18:41.410Z,0.90
2023-03-26T16:21:35.197Z,0.93
2023-03-26T16:24:08.468Z,1.08
2023-03-26T16:27:20.049Z,0.90
2023-03-26T16:30:27.531Z,1.95
2023-03-26T16:33:10.468Z,1.17
2023-03-26T16:36:03.427Z,1.00
2023-03-26T16:39:08.617Z,1.25
2023-03-26T16:41:47.241Z,1.92
2023-03-26T16:44:44.876Z,1.75
2023-03-26T16:47:50.789Z,1.30
2023-03-26T16:51:04.089Z,1.60
2023-03-26T16:53:41.987Z,1.80
2023-03-26T16:56:16.872Z,1.70
2023-03-26T16:59:05.204Z,1.40
2023-03-26T17:01:50.738Z,2.10
2023-03-26T17:04:31.939Z,1.50
2023-03-26T17:07:42.624Z,1.88
2023-03-26T17:10:34.140Z,2.05
2023-03-26T17:13:55.631Z,2.50
2023-03-26T17:16:35.021Z,3.08
2023-03-26T17:19:24.739Z,2.67
2023-03-26T17:22:11.675Z,1.92
2023-03-26T17:24:57.728Z,1.60
2023-03-26T17:27:52.258Z,1.35
2023-03-26T17:30:30.992Z,1.67
2023-03-26T17:33:03.741Z,1.58
2023-03-26T17:35:50.988Z,1.20
2023-03-26T17:38:26.978Z,1.50
2023-03-26T17:41:00.373Z,1.33
2023-03-26T17:43:42.535Z,1.38
2023-03-26T17:46:25.938Z,1.85
2023-03-26T17:49:19.470Z,1.08
2023-03-26T17:51:59.590Z,0.85
2023-03-26T17:54:37.010Z,1.30
2023-03-26T17:57:51.859Z,1.42
2023-03-26T18:03:04.755Z,2.25
2023-03-26T18:05:40.035Z,2.35
2023-03-26T18:08:24.291Z,1.27
2023-03-26T18:11:15.065Z,0.80
2023-03-26T18:14:21.158Z,1.27
2023-03-26T18:16:57.110Z,0.85
2023-03-26T18:19:32.098Z,0.95
2023-03-26T18:22:05.606Z,0.80
2023-03-26T18:27:20.481Z,0.75
2023-03-26T18:30:17.232Z,0.50
2023-03-26T18:33:05.606Z,0.98
2023-03-26T18:35:46.361Z,1.10
2023-03-26T18:38:35.474Z,1.10
2023-03-26T18:41:23.898Z,1.00
2023-03-26T18:43:57.615Z,0.98
2023-03-26T18:46:30.086Z,1.00
2023-03-26T18:49:03.173Z,1.05
2023-03-26T18:51:46.373Z,0.68
2023-03-26T18:54:34.380Z,1.27
2023-03-26T18:57:19.196Z,0.90
2023-03-26T18:59:54.345Z,0.90
2023-03-26T19:02:27.068Z,1.00
2023-03-26T19:05:03.335Z,1.20
2023-03-26T19:07:37.600Z,0.70
2023-03-26T19:10:18.742Z,1.17
2023-03-26T19:13:04.417Z,0.90
2023-03-26T19:15:37.187Z,0.80
2023-03-26T19:18:14.335Z,0.80
2023-03-26T19:20:54.503Z,0.90
2023-03-26T19:23:32.474Z,1.50
2023-03-26T19:26:08.026Z,0.93
2023-03-26T19:28:49.311Z,0.90
2023-03-26T19:31:34.019Z,1.30
2023-03-26T19:34:13.798Z,0.90
2023-03-26T19:36:58.428Z,1.25
2023-03-26T19:39:44.533Z,1.30
2023-03-26T19:42:26.662Z,1.15
2023-03-26T19:45:02.004Z,1.27
2023-03-26T19:50:37.198Z,1.60
2023-03-26T19:51:18.650Z,1.00
2023-03-26T19:53:19.096Z,2.13
2023-03-26T19:55:58.879Z,2.15
2023-03-26T19:58:31.189Z,1.17
2023-03-26T20:01:04.580Z,0.80
2023-03-26T20:03:43.076Z,1.27
2023-03-26T20:06:18.916Z,1.00
2023-03-26T20:08:52.418Z,0.90
2023-03-26T20:11:33.576Z,1.00
2023-03-26T20:14:13.384Z,0.90
2023-03-26T20:16:46.165Z,1.10
2023-03-26T20:19:19.458Z,0.85
2023-03-26T20:21:53.207Z,1.00
2023-03-26T20:24:26.276Z,0.52
2023-03-26T20:26:58.741Z,1.00
2023-03-26T20:29:30.986Z,0.90
2023-03-26T20:32:10.394Z,0.73
2023-03-26T20:34:42.544Z,0.75
2023-03-26T20:37:15.576Z,0.77
2023-03-26T20:39:48.281Z,0.85
2023-03-26T20:42:20.418Z,0.60
2023-03-26T20:44:52.618Z,0.63
2023-03-26T20:47:25.572Z,0.70
2023-03-26T20:49:57.894Z,1.00
2023-03-26T20:52:30.063Z,0.80
2023-03-26T20:55:03.548Z,1.08
2023-03-26T20:57:35.742Z,0.90
2023-03-26T21:00:22.062Z,1.60
2023-03-26T21:02:56.762Z,0.70
2023-03-26T21:05:30.301Z,0.80
2023-03-26T21:08:02.856Z,0.88
2023-03-26T21:10:36.139Z,0.88
2023-03-26T21:13:33.461Z,0.80
2023-03-26T21:16:06.688Z,1.00
2023-03-26T21:18:39.974Z,0.98
2023-03-26T21:21:57.532Z,1.00
2023-03-26T21:24:41.139Z,0.77
2023-03-26T21:27:28.772Z,1.10
2023-03-26T21:30:01.308Z,0.95
2023-03-26T21:32:34.215Z,0.88
2023-03-26T21:35:07.253Z,0.80
2023-03-26T21:37:43.024Z,1.00
2023-03-26T21:40:18.552Z,1.10
2023-03-26T21:42:53.146Z,0.75
2023-03-26T21:45:25.702Z,0.70
2023-03-26T21:47:58.288Z,1.15
2023-03-26T21:50:30.964Z,0.70
2023-03-26T21:53:03.437Z,1.08
2023-03-26T21:55:47.815Z,0.70
2023-03-26T21:58:47.842Z,0.90
2023-03-26T22:01:37.839Z,0.80
2023-03-26T22:04:34.544Z,0.80
2023-03-26T22:07:26.044Z,0.60
2023-03-26T22:09:58.257Z,0.90
2023-03-26T22:12:30.398Z,0.77
2023-03-26T22:15:02.596Z,0.80
2023-03-26T22:17:34.823Z,0.73
2023-03-26T22:20:13.127Z,0.70
2023-03-26T22:22:48.961Z,0.75
2023-03-26T22:25:22.656Z,0.75
2023-03-26T22:27:58.033Z,0.70
2023-03-26T22:30:31.140Z,0.70
2023-03-26T22:33:03.695Z,0.90
2023-03-26T22:35:40.292Z,0.57
2023-03-26T22:38:17.479Z,0.90
2023-03-26T22:40:58.809Z,0.90
2023-03-26T22:43:36.596Z,0.60
2023-03-26T22:46:16.711Z,0.80
2023-03-26T22:48:49.584Z,0.80
2023-03-26T22:51:21.987Z,0.93
2023-03-26T22:53:54.188Z,0.80
2023-03-26T22:56:26.412Z,0.90
2023-03-26T22:58:58.698Z,1.00
2023-03-26T23:01:31.348Z,0.70
2023-03-26T23:04:03.707Z,0.88
2023-03-26T23:06:36.344Z,2.83
2023-03-26T23:09:19.900Z,1.20
2023-03-26T23:11:52.260Z,1.00
2023-03-26T23:18:09.363Z,0.70
2023-03-26T23:20:43.013Z,0.77
2023-03-26T23:23:16.185Z,0.70
2023-03-26T23:25:48.741Z,0.60
2023-03-26T23:28:21.729Z,0.80
2023-03-26T23:30:55.462Z,1.13
2023-03-26T23:33:30.678Z,0.43
2023-03-26T23:36:09.144Z,1.30
2023-03-26T23:38:43.467Z,0.70
2023-03-26T23:41:19.637Z,0.93
2023-03-26T23:43:55.601Z,0.80
2023-03-26T23:46:34.899Z,0.70
2023-03-26T23:49:07.365Z,0.80
2023-03-26T23:51:39.831Z,0.98
2023-03-26T23:54:13.435Z,1.00
2023-03-26T23:56:46.271Z,0.88
2023-03-26T23:59:19.229Z,0.80
